sensor_id;sensor_type;location;lat;lon;timestamp;temperature;humidity
21108;DHT22;10712;52.944;9.098;2023-01-10T00:00:40;6.50;93.50
21108;DHT22;10712;52.944;9.098;2023-01-10T00:03:07;6.50;93.60
21108;DHT22;10712;52.944;9.098;2023-01-10T00:05:36;6.50;93.60
21108;DHT22;10712;52.944;9.098;2023-01-10T00:08:03;6.50;93.60
21108;DHT22;10712;52.944;9.098;2023-01-10T00:10:30;6.50;93.60
21108;DHT22;10712;52.944;9.098;2023-01-10T00:12:57;6.50;93.60
21108;DHT22;10712;52.944;9.098;2023-01-10T00:15:41;6.50;93.70
21108;DHT22;10712;52.944;9.098;2023-01-10T00:18:07;6.50;93.70
21108;DHT22;10712;52.944;9.098;2023-01-10T00:20:33;6.50;93.80
21108;DHT22;10712;52.944;9.098;2023-01-10T00:23:00;6.40;93.80
21108;DHT22;10712;52.944;9.098;2023-01-10T00:25:26;6.40;93.90
21108;DHT22;10712;52.944;9.098;2023-01-10T00:27:53;6.50;94.00
21108;DHT22;10712;52.944;9.098;2023-01-10T00:30:38;6.50;94.00
21108;DHT22;10712;52.944;9.098;2023-01-10T00:33:04;6.40;93.90
21108;DHT22;10712;52.944;9.098;2023-01-10T00:35:33;6.40;93.80
21108;DHT22;10712;52.944;9.098;2023-01-10T00:37:59;6.40;93.70
21108;DHT22;10712;52.944;9.098;2023-01-10T00:40:32;6.40;93.70
21108;DHT22;10712;52.944;9.098;2023-01-10T00:42:58;6.30;93.80
21108;DHT22;10712;52.944;9.098;2023-01-10T00:45:46;6.30;93.80
21108;DHT22;10712;52.944;9.098;2023-01-10T00:48:13;6.30;93.80
21108;DHT22;10712;52.944;9.098;2023-01-10T00:50:39;6.30;93.70
21108;DHT22;10712;52.944;9.098;2023-01-10T00:53:05;6.30;93.80
21108;DHT22;10712;52.944;9.098;2023-01-10T00:55:32;6.30;93.70
21108;DHT22;10712;52.944;9.098;2023-01-10T00:58:00;6.30;93.70
21108;DHT22;10712;52.944;9.098;2023-01-10T01:00:26;6.30;93.60
21108;DHT22;10712;52.944;9.098;2023-01-10T01:02:52;6.30;93.60
21108;DHT22;10712;52.944;9.098;2023-01-10T01:05:19;6.30;93.70
21108;DHT22;10712;52.944;9.098;2023-01-10T01:07:49;6.30;93.70
21108;DHT22;10712;52.944;9.098;2023-01-10T01:10:16;6.30;93.80
21108;DHT22;10712;52.944;9.098;2023-01-10T01:12:53;6.30;93.80
21108;DHT22;10712;52.944;9.098;2023-01-10T01:15:20;6.30;93.80
21108;DHT22;10712;52.944;9.098;2023-01-10T01:17:46;6.30;93.80
21108;DHT22;10712;52.944;9.098;2023-01-10T01:20:13;6.30;93.70
21108;DHT22;10712;52.944;9.098;2023-01-10T01:22:39;6.30;93.70
21108;DHT22;10712;52.944;9.098;2023-01-10T01:25:06;6.30;93.70
21108;DHT22;10712;52.944;9.098;2023-01-10T01:27:32;6.30;93.60
21108;DHT22;10712;52.944;9.098;2023-01-10T01:30:00;6.20;93.80
21108;DHT22;10712;52.944;9.098;2023-01-10T01:32:26;6.20;93.80
21108;DHT22;10712;52.944;9.098;2023-01-10T01:34:52;6.20;93.90
21108;DHT22;10712;52.944;9.098;2023-01-10T01:37:18;6.20;93.80
21108;DHT22;10712;52.944;9.098;2023-01-10T01:39:45;6.20;93.80
21108;DHT22;10712;52.944;9.098;2023-01-10T01:42:22;6.20;93.90
21108;DHT22;10712;52.944;9.098;2023-01-10T01:48:07;6.20;93.90
21108;DHT22;10712;52.944;9.098;2023-01-10T01:51:05;6.20;93.90
21108;DHT22;10712;52.944;9.098;2023-01-10T01:53:59;6.30;93.90
21108;DHT22;10712;52.944;9.098;2023-01-10T01:56:35;6.30;93.80
21108;DHT22;10712;52.944;9.098;2023-01-10T01:59:26;6.30;93.70
21108;DHT22;10712;52.944;9.098;2023-01-10T02:02:00;6.30;93.70
21108;DHT22;10712;52.944;9.098;2023-01-10T02:04:36;6.30;93.60
21108;DHT22;10712;52.944;9.098;2023-01-10T02:07:05;6.30;93.60
21108;DHT22;10712;52.944;9.098;2023-01-10T02:09:49;6.30;93.50
21108;DHT22;10712;52.944;9.098;2023-01-10T02:12:19;6.30;93.50
21108;DHT22;10712;52.944;9.098;2023-01-10T02:14:46;6.30;93.60
21108;DHT22;10712;52.944;9.098;2023-01-10T02:17:14;6.30;93.50
21108;DHT22;10712;52.944;9.098;2023-01-10T02:37:18;6.30;93.20
21108;DHT22;10712;52.944;9.098;2023-01-10T02:40:12;6.30;93.10
21108;DHT22;10712;52.944;9.098;2023-01-10T02:42:59;6.30;93.00
21108;DHT22;10712;52.944;9.098;2023-01-10T02:45:37;6.30;93.00
21108;DHT22;10712;52.944;9.098;2023-01-10T02:48:10;6.30;92.90
21108;DHT22;10712;52.944;9.098;2023-01-10T02:53:40;6.30;92.90
21108;DHT22;10712;52.944;9.098;2023-01-10T03:02:16;6.30;93.00
21108;DHT22;10712;52.944;9.098;2023-01-10T03:05:00;6.20;92.90
21108;DHT22;10712;52.944;9.098;2023-01-10T03:07:55;6.20;92.90
21108;DHT22;10712;52.944;9.098;2023-01-10T03:10:42;6.20;92.90
21108;DHT22;10712;52.944;9.098;2023-01-10T03:13:18;6.20;92.70
21108;DHT22;10712;52.944;9.098;2023-01-10T03:15:45;6.10;92.60
21108;DHT22;10712;52.944;9.098;2023-01-10T03:18:24;6.10;92.50
21108;DHT22;10712;52.944;9.098;2023-01-10T03:20:57;6.10;92.50
21108;DHT22;10712;52.944;9.098;2023-01-10T03:23:25;6.10;92.40
21108;DHT22;10712;52.944;9.098;2023-01-10T03:25:54;6.00;92.40
21108;DHT22;10712;52.944;9.098;2023-01-10T03:28:31;6.00;92.40
21108;DHT22;10712;52.944;9.098;2023-01-10T03:31:10;5.90;92.40
21108;DHT22;10712;52.944;9.098;2023-01-10T03:33:42;5.90;92.30
21108;DHT22;10712;52.944;9.098;2023-01-10T03:42:01;5.90;92.50
21108;DHT22;10712;52.944;9.098;2023-01-10T03:47:40;5.80;92.70
21108;DHT22;10712;52.944;9.098;2023-01-10T03:50:17;5.80;92.80
21108;DHT22;10712;52.944;9.098;2023-01-10T03:52:46;5.80;92.70
21108;DHT22;10712;52.944;9.098;2023-01-10T03:55:14;5.70;92.80
21108;DHT22;10712;52.944;9.098;2023-01-10T03:57:44;5.70;92.90
21108;DHT22;10712;52.944;9.098;2023-01-10T04:00:12;5.70;92.90
21108;DHT22;10712;52.944;9.098;2023-01-10T04:02:38;5.70;93.00
21108;DHT22;10712;52.944;9.098;2023-01-10T04:05:05;5.80;93.10
21108;DHT22;10712;52.944;9.098;2023-01-10T04:07:31;5.70;93.00
21108;DHT22;10712;52.944;9.098;2023-01-10T04:09:57;5.80;93.10
21108;DHT22;10712;52.944;9.098;2023-01-10T04:12:23;5.70;93.10
21108;DHT22;10712;52.944;9.098;2023-01-10T04:14:49;5.70;93.20
21108;DHT22;10712;52.944;9.098;2023-01-10T04:17:16;5.70;93.10
21108;DHT22;10712;52.944;9.098;2023-01-10T04:19:42;5.70;93.10
21108;DHT22;10712;52.944;9.098;2023-01-10T04:22:09;5.70;93.20
21108;DHT22;10712;52.944;9.098;2023-01-10T04:24:36;5.70;93.20
21108;DHT22;10712;52.944;9.098;2023-01-10T04:27:02;5.70;93.30
21108;DHT22;10712;52.944;9.098;2023-01-10T04:29:28;5.70;93.20
21108;DHT22;10712;52.944;9.098;2023-01-10T04:31:54;5.70;93.30
21108;DHT22;10712;52.944;9.098;2023-01-10T04:34:20;5.70;93.40
21108;DHT22;10712;52.944;9.098;2023-01-10T04:36:47;5.70;93.30
21108;DHT22;10712;52.944;9.098;2023-01-10T04:39:14;5.70;93.30
21108;DHT22;10712;52.944;9.098;2023-01-10T04:41:40;5.60;93.30
21108;DHT22;10712;52.944;9.098;2023-01-10T04:44:06;5.60;93.40
21108;DHT22;10712;52.944;9.098;2023-01-10T04:46:33;5.60;93.50
21108;DHT22;10712;52.944;9.098;2023-01-10T04:48:59;5.70;93.50
21108;DHT22;10712;52.944;9.098;2023-01-10T04:51:26;5.70;93.50
21108;DHT22;10712;52.944;9.098;2023-01-10T04:53:54;5.70;93.40
21108;DHT22;10712;52.944;9.098;2023-01-10T04:56:21;5.70;93.40
21108;DHT22;10712;52.944;9.098;2023-01-10T04:58:48;5.70;93.40
21108;DHT22;10712;52.944;9.098;2023-01-10T05:01:17;5.70;93.50
21108;DHT22;10712;52.944;9.098;2023-01-10T05:03:54;5.70;93.50
21108;DHT22;10712;52.944;9.098;2023-01-10T05:06:21;5.70;93.50
21108;DHT22;10712;52.944;9.098;2023-01-10T05:08:48;5.70;93.50
21108;DHT22;10712;52.944;9.098;2023-01-10T05:11:14;5.80;93.40
21108;DHT22;10712;52.944;9.098;2023-01-10T05:13:40;5.80;93.40
21108;DHT22;10712;52.944;9.098;2023-01-10T05:16:06;5.80;93.30
21108;DHT22;10712;52.944;9.098;2023-01-10T05:18:33;5.80;93.30
21108;DHT22;10712;52.944;9.098;2023-01-10T05:21:00;5.80;93.30
21108;DHT22;10712;52.944;9.098;2023-01-10T05:23:28;5.80;93.10
21108;DHT22;10712;52.944;9.098;2023-01-10T05:25:54;5.80;93.00
21108;DHT22;10712;52.944;9.098;2023-01-10T05:28:20;5.70;92.80
21108;DHT22;10712;52.944;9.098;2023-01-10T05:30:46;5.70;92.70
21108;DHT22;10712;52.944;9.098;2023-01-10T05:33:12;5.70;92.70
21108;DHT22;10712;52.944;9.098;2023-01-10T05:35:37;5.70;92.60
21108;DHT22;10712;52.944;9.098;2023-01-10T05:38:03;5.70;92.70
21108;DHT22;10712;52.944;9.098;2023-01-10T05:40:29;5.70;92.60
21108;DHT22;10712;52.944;9.098;2023-01-10T05:42:55;5.60;92.70
21108;DHT22;10712;52.944;9.098;2023-01-10T05:45:21;5.60;92.60
21108;DHT22;10712;52.944;9.098;2023-01-10T05:47:47;5.60;92.50
21108;DHT22;10712;52.944;9.098;2023-01-10T05:50:12;5.50;92.50
21108;DHT22;10712;52.944;9.098;2023-01-10T05:52:38;5.60;92.40
21108;DHT22;10712;52.944;9.098;2023-01-10T05:55:05;5.50;92.20
21108;DHT22;10712;52.944;9.098;2023-01-10T05:57:31;5.50;92.20
21108;DHT22;10712;52.944;9.098;2023-01-10T05:59:56;5.50;92.00
21108;DHT22;10712;52.944;9.098;2023-01-10T06:02:22;5.50;91.90
21108;DHT22;10712;52.944;9.098;2023-01-10T06:04:50;5.50;91.90
21108;DHT22;10712;52.944;9.098;2023-01-10T06:07:17;5.50;92.00
21108;DHT22;10712;52.944;9.098;2023-01-10T06:09:42;5.50;92.10
21108;DHT22;10712;52.944;9.098;2023-01-10T06:12:09;5.50;92.20
21108;DHT22;10712;52.944;9.098;2023-01-10T06:14:34;5.50;92.20
21108;DHT22;10712;52.944;9.098;2023-01-10T06:17:00;5.50;92.10
21108;DHT22;10712;52.944;9.098;2023-01-10T06:19:26;5.50;92.20
21108;DHT22;10712;52.944;9.098;2023-01-10T06:21:51;5.50;92.20
21108;DHT22;10712;52.944;9.098;2023-01-10T06:24:17;5.50;92.20
21108;DHT22;10712;52.944;9.098;2023-01-10T06:26:43;5.50;92.20
21108;DHT22;10712;52.944;9.098;2023-01-10T06:29:09;5.50;92.30
21108;DHT22;10712;52.944;9.098;2023-01-10T06:31:35;5.50;92.30
21108;DHT22;10712;52.944;9.098;2023-01-10T06:34:00;5.50;92.30
21108;DHT22;10712;52.944;9.098;2023-01-10T06:36:26;5.60;92.20
21108;DHT22;10712;52.944;9.098;2023-01-10T06:38:52;5.60;92.30
21108;DHT22;10712;52.944;9.098;2023-01-10T06:41:17;5.60;92.20
21108;DHT22;10712;52.944;9.098;2023-01-10T06:43:45;5.60;92.30
21108;DHT22;10712;52.944;9.098;2023-01-10T06:46:13;5.60;92.30
21108;DHT22;10712;52.944;9.098;2023-01-10T06:48:41;5.60;92.30
21108;DHT22;10712;52.944;9.098;2023-01-10T06:51:10;5.60;92.30
21108;DHT22;10712;52.944;9.098;2023-01-10T06:53:36;5.60;92.40
21108;DHT22;10712;52.944;9.098;2023-01-10T06:56:02;5.60;92.40
21108;DHT22;10712;52.944;9.098;2023-01-10T06:58:30;5.60;92.40
21108;DHT22;10712;52.944;9.098;2023-01-10T07:00:57;5.60;92.30
21108;DHT22;10712;52.944;9.098;2023-01-10T07:03:23;5.60;92.30
21108;DHT22;10712;52.944;9.098;2023-01-10T07:05:48;5.60;92.20
21108;DHT22;10712;52.944;9.098;2023-01-10T07:08:14;5.60;92.30
21108;DHT22;10712;52.944;9.098;2023-01-10T07:10:42;5.60;92.30
21108;DHT22;10712;52.944;9.098;2023-01-10T07:13:08;5.60;92.30
21108;DHT22;10712;52.944;9.098;2023-01-10T07:15:35;5.60;92.10
21108;DHT22;10712;52.944;9.098;2023-01-10T07:18:01;5.60;92.10
21108;DHT22;10712;52.944;9.098;2023-01-10T07:20:27;5.60;92.10
21108;DHT22;10712;52.944;9.098;2023-01-10T07:22:57;5.70;92.00
21108;DHT22;10712;52.944;9.098;2023-01-10T07:25:26;5.60;92.00
21108;DHT22;10712;52.944;9.098;2023-01-10T07:27:53;5.70;92.00
21108;DHT22;10712;52.944;9.098;2023-01-10T07:30:23;5.70;92.00
21108;DHT22;10712;52.944;9.098;2023-01-10T07:32:53;5.70;92.10
21108;DHT22;10712;52.944;9.098;2023-01-10T07:35:19;5.70;92.20
21108;DHT22;10712;52.944;9.098;2023-01-10T07:37:46;5.70;92.20
21108;DHT22;10712;52.944;9.098;2023-01-10T07:40:11;5.70;92.20
21108;DHT22;10712;52.944;9.098;2023-01-10T07:42:37;5.70;92.30
21108;DHT22;10712;52.944;9.098;2023-01-10T07:45:03;5.70;92.30
21108;DHT22;10712;52.944;9.098;2023-01-10T07:47:31;5.70;92.20
21108;DHT22;10712;52.944;9.098;2023-01-10T07:49:57;5.70;92.30
21108;DHT22;10712;52.944;9.098;2023-01-10T07:52:23;5.70;92.30
21108;DHT22;10712;52.944;9.098;2023-01-10T07:54:49;5.70;92.30
21108;DHT22;10712;52.944;9.098;2023-01-10T07:57:14;5.70;92.50
21108;DHT22;10712;52.944;9.098;2023-01-10T07:59:40;5.70;92.30
21108;DHT22;10712;52.944;9.098;2023-01-10T08:02:08;5.70;92.30
21108;DHT22;10712;52.944;9.098;2023-01-10T08:04:35;5.70;92.30
21108;DHT22;10712;52.944;9.098;2023-01-10T08:07:03;5.70;92.50
21108;DHT22;10712;52.944;9.098;2023-01-10T08:09:29;5.70;92.20
21108;DHT22;10712;52.944;9.098;2023-01-10T08:11:55;5.80;92.10
21108;DHT22;10712;52.944;9.098;2023-01-10T08:14:20;5.80;92.00
21108;DHT22;10712;52.944;9.098;2023-01-10T08:16:46;5.80;91.80
21108;DHT22;10712;52.944;9.098;2023-01-10T08:19:12;5.80;91.80
21108;DHT22;10712;52.944;9.098;2023-01-10T08:21:41;5.80;91.80
21108;DHT22;10712;52.944;9.098;2023-01-10T08:24:07;5.80;91.70
21108;DHT22;10712;52.944;9.098;2023-01-10T08:26:33;5.80;91.70
21108;DHT22;10712;52.944;9.098;2023-01-10T08:28:59;5.80;91.60
21108;DHT22;10712;52.944;9.098;2023-01-10T08:31:26;5.80;91.50
21108;DHT22;10712;52.944;9.098;2023-01-10T08:33:52;5.80;91.60
21108;DHT22;10712;52.944;9.098;2023-01-10T08:36:19;5.70;91.70
21108;DHT22;10712;52.944;9.098;2023-01-10T08:38:47;5.70;91.80
21108;DHT22;10712;52.944;9.098;2023-01-10T08:41:15;5.70;92.00
21108;DHT22;10712;52.944;9.098;2023-01-10T08:43:40;5.70;92.20
21108;DHT22;10712;52.944;9.098;2023-01-10T08:46:06;5.70;92.30
21108;DHT22;10712;52.944;9.098;2023-01-10T08:48:32;5.70;92.30
21108;DHT22;10712;52.944;9.098;2023-01-10T08:51:04;5.70;92.40
21108;DHT22;10712;52.944;9.098;2023-01-10T08:53:31;5.70;92.50
21108;DHT22;10712;52.944;9.098;2023-01-10T08:55:57;5.70;92.50
21108;DHT22;10712;52.944;9.098;2023-01-10T08:58:23;5.70;92.60
21108;DHT22;10712;52.944;9.098;2023-01-10T09:00:48;5.70;92.50
21108;DHT22;10712;52.944;9.098;2023-01-10T09:03:15;5.70;92.60
21108;DHT22;10712;52.944;9.098;2023-01-10T09:05:41;5.70;92.60
21108;DHT22;10712;52.944;9.098;2023-01-10T09:08:07;5.80;92.60
21108;DHT22;10712;52.944;9.098;2023-01-10T09:10:34;5.80;92.50
21108;DHT22;10712;52.944;9.098;2023-01-10T09:13:00;5.80;92.50
21108;DHT22;10712;52.944;9.098;2023-01-10T09:15:28;5.80;92.30
21108;DHT22;10712;52.944;9.098;2023-01-10T09:18:01;5.90;92.20
21108;DHT22;10712;52.944;9.098;2023-01-10T09:20:36;5.90;92.10
21108;DHT22;10712;52.944;9.098;2023-01-10T09:23:06;5.90;92.10
21108;DHT22;10712;52.944;9.098;2023-01-10T09:25:37;5.90;92.10
21108;DHT22;10712;52.944;9.098;2023-01-10T09:28:04;5.90;92.20
21108;DHT22;10712;52.944;9.098;2023-01-10T09:30:31;5.90;92.20
21108;DHT22;10712;52.944;9.098;2023-01-10T09:32:58;6.00;92.30
21108;DHT22;10712;52.944;9.098;2023-01-10T09:35:25;6.00;92.40
21108;DHT22;10712;52.944;9.098;2023-01-10T09:37:56;6.10;92.40
21108;DHT22;10712;52.944;9.098;2023-01-10T09:49:50;6.30;91.80
21108;DHT22;10712;52.944;9.098;2023-01-10T09:52:35;6.30;91.80
21108;DHT22;10712;52.944;9.098;2023-01-10T09:55:28;6.30;91.80
21108;DHT22;10712;52.944;9.098;2023-01-10T09:57:59;6.30;91.80
21108;DHT22;10712;52.944;9.098;2023-01-10T10:00:56;6.30;91.80
21108;DHT22;10712;52.944;9.098;2023-01-10T10:06:26;6.30;91.70
21108;DHT22;10712;52.944;9.098;2023-01-10T10:08:52;6.40;91.70
21108;DHT22;10712;52.944;9.098;2023-01-10T10:14:01;6.40;91.70
21108;DHT22;10712;52.944;9.098;2023-01-10T10:23:09;6.50;91.70
21108;DHT22;10712;52.944;9.098;2023-01-10T10:25:57;6.50;91.70
21108;DHT22;10712;52.944;9.098;2023-01-10T10:31:34;6.60;91.30
21108;DHT22;10712;52.944;9.098;2023-01-10T10:34:40;6.60;91.30
21108;DHT22;10712;52.944;9.098;2023-01-10T10:37:19;6.60;91.30
21108;DHT22;10712;52.944;9.098;2023-01-10T10:39:55;6.70;91.30
21108;DHT22;10712;52.944;9.098;2023-01-10T10:42:29;6.70;91.20
21108;DHT22;10712;52.944;9.098;2023-01-10T10:45:20;6.70;91.10
21108;DHT22;10712;52.944;9.098;2023-01-10T10:48:37;6.80;90.80
21108;DHT22;10712;52.944;9.098;2023-01-10T10:51:17;6.80;90.70
21108;DHT22;10712;52.944;9.098;2023-01-10T10:53:53;6.80;90.60
21108;DHT22;10712;52.944;9.098;2023-01-10T10:56:22;6.80;90.50
21108;DHT22;10712;52.944;9.098;2023-01-10T10:58:54;6.80;90.30
21108;DHT22;10712;52.944;9.098;2023-01-10T11:01:23;6.80;90.40
21108;DHT22;10712;52.944;9.098;2023-01-10T11:04:07;6.90;90.30
21108;DHT22;10712;52.944;9.098;2023-01-10T11:06:37;6.90;90.10
21108;DHT22;10712;52.944;9.098;2023-01-10T11:09:06;6.90;90.00
21108;DHT22;10712;52.944;9.098;2023-01-10T11:11:44;6.90;90.10
21108;DHT22;10712;52.944;9.098;2023-01-10T11:14:11;6.90;90.00
21108;DHT22;10712;52.944;9.098;2023-01-10T11:16:40;6.90;90.10
21108;DHT22;10712;52.944;9.098;2023-01-10T11:19:17;6.90;90.00
21108;DHT22;10712;52.944;9.098;2023-01-10T11:21:56;7.00;90.10
21108;DHT22;10712;52.944;9.098;2023-01-10T11:24:31;7.00;90.00
21108;DHT22;10712;52.944;9.098;2023-01-10T11:27:13;7.00;90.10
21108;DHT22;10712;52.944;9.098;2023-01-10T11:29:49;7.00;90.10
21108;DHT22;10712;52.944;9.098;2023-01-10T11:32:47;7.00;90.10
21108;DHT22;10712;52.944;9.098;2023-01-10T11:35:19;7.10;90.10
21108;DHT22;10712;52.944;9.098;2023-01-10T11:38:00;7.10;90.10
21108;DHT22;10712;52.944;9.098;2023-01-10T11:41:02;7.10;90.10
21108;DHT22;10712;52.944;9.098;2023-01-10T11:46:20;7.20;89.70
21108;DHT22;10712;52.944;9.098;2023-01-10T11:49:04;7.20;89.50
21108;DHT22;10712;52.944;9.098;2023-01-10T11:51:38;7.20;89.60
21108;DHT22;10712;52.944;9.098;2023-01-10T11:54:14;7.20;89.70
21108;DHT22;10712;52.944;9.098;2023-01-10T11:56:53;7.20;89.80
21108;DHT22;10712;52.944;9.098;2023-01-10T11:59:23;7.30;89.70
21108;DHT22;10712;52.944;9.098;2023-01-10T12:04:43;7.30;89.10
21108;DHT22;10712;52.944;9.098;2023-01-10T12:07:12;7.30;89.30
21108;DHT22;10712;52.944;9.098;2023-01-10T12:09:43;7.40;89.50
21108;DHT22;10712;52.944;9.098;2023-01-10T12:12:24;7.40;89.50
21108;DHT22;10712;52.944;9.098;2023-01-10T12:14:52;7.40;89.30
21108;DHT22;10712;52.944;9.098;2023-01-10T12:17:26;7.40;89.30
21108;DHT22;10712;52.944;9.098;2023-01-10T12:20:01;7.40;89.10
21108;DHT22;10712;52.944;9.098;2023-01-10T12:22:38;7.40;88.80
21108;DHT22;10712;52.944;9.098;2023-01-10T12:27:43;7.40;89.00
21108;DHT22;10712;52.944;9.098;2023-01-10T12:33:01;7.40;88.70
21108;DHT22;10712;52.944;9.098;2023-01-10T12:35:40;7.40;88.60
21108;DHT22;10712;52.944;9.098;2023-01-10T12:38:31;7.40;88.10
21108;DHT22;10712;52.944;9.098;2023-01-10T12:41:48;7.40;88.20
21108;DHT22;10712;52.944;9.098;2023-01-10T12:44:44;7.40;88.30
21108;DHT22;10712;52.944;9.098;2023-01-10T12:50:12;7.40;88.20
21108;DHT22;10712;52.944;9.098;2023-01-10T12:53:23;7.40;88.20
21108;DHT22;10712;52.944;9.098;2023-01-10T12:56:04;7.40;88.30
21108;DHT22;10712;52.944;9.098;2023-01-10T12:58:51;7.40;88.30
21108;DHT22;10712;52.944;9.098;2023-01-10T13:01:26;7.30;88.40
21108;DHT22;10712;52.944;9.098;2023-01-10T13:04:00;7.30;88.40
21108;DHT22;10712;52.944;9.098;2023-01-10T13:06:35;7.30;88.50
21108;DHT22;10712;52.944;9.098;2023-01-10T13:09:07;7.40;88.50
21108;DHT22;10712;52.944;9.098;2023-01-10T13:15:31;7.30;88.10
21108;DHT22;10712;52.944;9.098;2023-01-10T13:18:24;7.30;88.00
21108;DHT22;10712;52.944;9.098;2023-01-10T13:21:21;7.30;88.10
21108;DHT22;10712;52.944;9.098;2023-01-10T13:23:49;7.30;88.00
21108;DHT22;10712;52.944;9.098;2023-01-10T13:26:18;7.30;88.10
21108;DHT22;10712;52.944;9.098;2023-01-10T13:28:59;7.30;88.20
21108;DHT22;10712;52.944;9.098;2023-01-10T13:31:32;7.30;88.10
21108;DHT22;10712;52.944;9.098;2023-01-10T13:34:04;7.30;88.10
21108;DHT22;10712;52.944;9.098;2023-01-10T13:36:40;7.30;88.20
21108;DHT22;10712;52.944;9.098;2023-01-10T13:55:32;7.30;88.10
21108;DHT22;10712;52.944;9.098;2023-01-10T14:01:27;7.30;87.60
21108;DHT22;10712;52.944;9.098;2023-01-10T14:04:19;7.30;87.80
21108;DHT22;10712;52.944;9.098;2023-01-10T14:06:57;7.20;87.80
21108;DHT22;10712;52.944;9.098;2023-01-10T14:09:38;7.20;87.80
21108;DHT22;10712;52.944;9.098;2023-01-10T14:12:20;7.20;88.00
21108;DHT22;10712;52.944;9.098;2023-01-10T14:15:02;7.20;88.00
21108;DHT22;10712;52.944;9.098;2023-01-10T14:17:33;7.20;87.70
21108;DHT22;10712;52.944;9.098;2023-01-10T14:20:13;7.20;87.60
21108;DHT22;10712;52.944;9.098;2023-01-10T14:25:41;7.20;87.60
21108;DHT22;10712;52.944;9.098;2023-01-10T14:28:24;7.20;87.40
21108;DHT22;10712;52.944;9.098;2023-01-10T14:33:29;7.10;87.20
21108;DHT22;10712;52.944;9.098;2023-01-10T14:36:05;7.10;87.00
21108;DHT22;10712;52.944;9.098;2023-01-10T14:38:36;7.10;87.00
21108;DHT22;10712;52.944;9.098;2023-01-10T14:41:19;7.10;87.10
21108;DHT22;10712;52.944;9.098;2023-01-10T14:43:58;7.10;87.00
21108;DHT22;10712;52.944;9.098;2023-01-10T14:49:34;7.00;87.10
21108;DHT22;10712;52.944;9.098;2023-01-10T14:52:18;7.00;87.20
21108;DHT22;10712;52.944;9.098;2023-01-10T14:55:08;7.00;87.30
21108;DHT22;10712;52.944;9.098;2023-01-10T14:57:59;7.00;87.30
21108;DHT22;10712;52.944;9.098;2023-01-10T15:00:33;6.90;87.30
21108;DHT22;10712;52.944;9.098;2023-01-10T15:03:04;6.90;87.40
21108;DHT22;10712;52.944;9.098;2023-01-10T15:05:43;6.90;87.30
21108;DHT22;10712;52.944;9.098;2023-01-10T15:08:25;6.90;87.20
21108;DHT22;10712;52.944;9.098;2023-01-10T15:11:02;6.90;87.30
21108;DHT22;10712;52.944;9.098;2023-01-10T15:13:34;6.90;87.20
21108;DHT22;10712;52.944;9.098;2023-01-10T15:16:16;6.80;87.10
21108;DHT22;10712;52.944;9.098;2023-01-10T15:18:45;6.80;87.10
21108;DHT22;10712;52.944;9.098;2023-01-10T15:21:14;6.80;87.20
21108;DHT22;10712;52.944;9.098;2023-01-10T15:23:45;6.80;87.20
21108;DHT22;10712;52.944;9.098;2023-01-10T15:26:13;6.80;87.30
21108;DHT22;10712;52.944;9.098;2023-01-10T15:28:45;6.70;87.40
21108;DHT22;10712;52.944;9.098;2023-01-10T15:31:28;6.70;87.40
21108;DHT22;10712;52.944;9.098;2023-01-10T15:33:54;6.70;87.40
21108;DHT22;10712;52.944;9.098;2023-01-10T15:36:26;6.70;87.30
21108;DHT22;10712;52.944;9.098;2023-01-10T15:38:53;6.70;87.40
21108;DHT22;10712;52.944;9.098;2023-01-10T15:41:22;6.60;87.50
21108;DHT22;10712;52.944;9.098;2023-01-10T15:43:49;6.60;87.60
21108;DHT22;10712;52.944;9.098;2023-01-10T15:46:23;6.60;87.50
21108;DHT22;10712;52.944;9.098;2023-01-10T15:49:00;6.70;87.30
21108;DHT22;10712;52.944;9.098;2023-01-10T15:51:37;6.60;87.20
21108;DHT22;10712;52.944;9.098;2023-01-10T15:56:52;6.60;87.00
21108;DHT22;10712;52.944;9.098;2023-01-10T15:59:30;6.60;87.00
21108;DHT22;10712;52.944;9.098;2023-01-10T16:04:37;6.60;87.00
21108;DHT22;10712;52.944;9.098;2023-01-10T16:07:25;6.60;86.80
21108;DHT22;10712;52.944;9.098;2023-01-10T16:10:05;6.60;86.90
21108;DHT22;10712;52.944;9.098;2023-01-10T16:12:41;6.60;87.00
21108;DHT22;10712;52.944;9.098;2023-01-10T16:15:28;6.60;87.00
21108;DHT22;10712;52.944;9.098;2023-01-10T16:18:03;6.60;86.90
21108;DHT22;10712;52.944;9.098;2023-01-10T16:20:41;6.50;87.10
21108;DHT22;10712;52.944;9.098;2023-01-10T16:23:16;6.50;87.20
21108;DHT22;10712;52.944;9.098;2023-01-10T16:25:46;6.50;87.30
21108;DHT22;10712;52.944;9.098;2023-01-10T16:28:17;6.50;87.30
21108;DHT22;10712;52.944;9.098;2023-01-10T16:30:44;6.50;87.40
21108;DHT22;10712;52.944;9.098;2023-01-10T16:33:16;6.50;87.40
21108;DHT22;10712;52.944;9.098;2023-01-10T16:35:55;6.50;87.50
21108;DHT22;10712;52.944;9.098;2023-01-10T16:38:23;6.50;87.50
21108;DHT22;10712;52.944;9.098;2023-01-10T16:40:52;6.50;87.50
21108;DHT22;10712;52.944;9.098;2023-01-10T16:43:21;6.50;87.60
21108;DHT22;10712;52.944;9.098;2023-01-10T16:45:56;6.50;87.60
21108;DHT22;10712;52.944;9.098;2023-01-10T16:48:30;6.50;87.70
21108;DHT22;10712;52.944;9.098;2023-01-10T16:51:09;6.50;87.70
21108;DHT22;10712;52.944;9.098;2023-01-10T16:53:40;6.50;87.80
21108;DHT22;10712;52.944;9.098;2023-01-10T16:56:13;6.50;87.80
21108;DHT22;10712;52.944;9.098;2023-01-10T16:58:41;6.50;87.80
21108;DHT22;10712;52.944;9.098;2023-01-10T17:01:10;6.50;87.80
21108;DHT22;10712;52.944;9.098;2023-01-10T17:03:41;6.50;87.70
21108;DHT22;10712;52.944;9.098;2023-01-10T17:06:09;6.50;87.50
21108;DHT22;10712;52.944;9.098;2023-01-10T17:08:40;6.50;87.40
21108;DHT22;10712;52.944;9.098;2023-01-10T17:11:11;6.50;87.30
21108;DHT22;10712;52.944;9.098;2023-01-10T17:13:41;6.50;87.30
21108;DHT22;10712;52.944;9.098;2023-01-10T17:16:08;6.50;87.10
21108;DHT22;10712;52.944;9.098;2023-01-10T17:18:34;6.50;87.10
21108;DHT22;10712;52.944;9.098;2023-01-10T17:21:00;6.50;86.90
21108;DHT22;10712;52.944;9.098;2023-01-10T17:23:26;6.50;86.80
21108;DHT22;10712;52.944;9.098;2023-01-10T17:26:02;6.60;86.60
21108;DHT22;10712;52.944;9.098;2023-01-10T17:28:30;6.50;86.50
21108;DHT22;10712;52.944;9.098;2023-01-10T17:30:57;6.50;86.50
21108;DHT22;10712;52.944;9.098;2023-01-10T17:33:24;6.50;86.40
21108;DHT22;10712;52.944;9.098;2023-01-10T17:35:53;6.50;86.30
21108;DHT22;10712;52.944;9.098;2023-01-10T17:38:20;6.50;86.40
21108;DHT22;10712;52.944;9.098;2023-01-10T17:40:47;6.50;86.30
21108;DHT22;10712;52.944;9.098;2023-01-10T17:43:14;6.50;86.40
21108;DHT22;10712;52.944;9.098;2023-01-10T17:45:43;6.50;86.50
21108;DHT22;10712;52.944;9.098;2023-01-10T17:48:12;6.50;86.40
21108;DHT22;10712;52.944;9.098;2023-01-10T17:50:45;6.50;86.40
21108;DHT22;10712;52.944;9.098;2023-01-10T17:53:12;6.50;86.20
21108;DHT22;10712;52.944;9.098;2023-01-10T17:55:45;6.50;86.10
21108;DHT22;10712;52.944;9.098;2023-01-10T17:58:12;6.50;85.80
21108;DHT22;10712;52.944;9.098;2023-01-10T18:00:39;6.50;85.60
21108;DHT22;10712;52.944;9.098;2023-01-10T18:03:06;6.60;85.50
21108;DHT22;10712;52.944;9.098;2023-01-10T18:05:32;6.60;85.40
21108;DHT22;10712;52.944;9.098;2023-01-10T18:08:00;6.50;85.30